Forest Green, Missouri
Current Conditions -  °F | °C
As of 12:55 PM on Saturday 22 Nov 2014 (Local Time) from KMHL Reporting Station
Overcast Overcast  
Wind Chill: 61°   Ceiling: 1700
Heat Index: 61°   Visibility: 7mi
Dew Point: 54°   Wind: 18mph
Humidity: 77%   Direction: 190°S
Pressure: 29.92"   Gusts: 24mph
Location:  39.4605°N, 92.8061°W
Report Text: KMHL 221855Z AUTO 19016G21KT 7SM OVC017 16/12 A2992 RMK AO2
Loading
Personal Weather Stations






























Interactive Weather Map New forecast layout! Learn more

10-Day Weather Forecast

Advertisements
Track Severe Weather on mobile